Flight Briefing for CPX211

Departure Arrival
Benito Juárez International Airport (MMMX)
Click to view FAA NOTAMS
Miami International Airport (KMIA)
Click to view FAA NOTAMS
Departure Time Arrival Time
1130 UTC 1430 UTC
Aircraft Distance
B767-300BDSF 1145nm
Departure METAR Arrival METAR
MMMX 252352Z 05018KT 10SM SKC 25/M08 A3026 NOSIG RMK SLP075 54000 901 HZY KMIA 252353Z 12005KT 10SM FEW025 24/19 A3003 RMK AO2 SLP168 60042 T02390194 10272 20228 55000
Suggested Route
CCUDA M580 NATLE CYY SSCOT5


View recent IFR Routes data
Notes



Charts and Procedures

Charts for MMMX
No chart available
Charts for KMIA
No chart available

Windy.com Weather Map